sensor_id;sensor_type;location;lat;lon;timestamp;pressure;altitude;pressure_sealevel;temperature;humidity
73870;BME280;64924;42.140;24.762;2022-12-24T00:00:23;99526.38;;;5.12;58.78
73870;BME280;64924;42.140;24.762;2022-12-24T00:02:49;99437.38;;;4.55;58.63
73870;BME280;64924;42.140;24.762;2022-12-24T00:05:15;99541.16;;;5.00;59.00
73870;BME280;64924;42.140;24.762;2022-12-24T00:07:40;99527.28;;;4.79;59.26
73870;BME280;64924;42.140;24.762;2022-12-24T00:10:07;99521.81;;;4.62;59.51
73870;BME280;64924;42.140;24.762;2022-12-24T00:12:33;99552.44;;;4.61;60.22
73870;BME280;64924;42.140;24.762;2022-12-24T00:14:58;99551.84;;;4.42;60.45
73870;BME280;64924;42.140;24.762;2022-12-24T00:17:24;99544.75;;;4.41;60.96
73870;BME280;64924;42.140;24.762;2022-12-24T00:19:49;99553.16;;;4.46;60.97
73870;BME280;64924;42.140;24.762;2022-12-24T00:22:15;99546.97;;;4.45;60.90
73870;BME280;64924;42.140;24.762;2022-12-24T00:24:40;99475.81;;;4.06;60.72
73870;BME280;64924;42.140;24.762;2022-12-24T00:27:06;99536.03;;;4.47;60.75
73870;BME280;64924;42.140;24.762;2022-12-24T00:29:32;99524.63;;;4.45;60.44
73870;BME280;64924;42.140;24.762;2022-12-24T00:31:58;99541.72;;;4.69;60.47
73870;BME280;64924;42.140;24.762;2022-12-24T00:34:24;99552.84;;;4.83;59.95
73870;BME280;64924;42.140;24.762;2022-12-24T00:36:50;99555.53;;;4.83;59.80
73870;BME280;64924;42.140;24.762;2022-12-24T00:39:15;99552.88;;;4.91;59.72
73870;BME280;64924;42.140;24.762;2022-12-24T00:41:41;99561.31;;;4.96;59.77
73870;BME280;64924;42.140;24.762;2022-12-24T00:44:07;99556.78;;;4.96;59.64
73870;BME280;64924;42.140;24.762;2022-12-24T00:46:38;99553.25;;;4.96;59.07
73870;BME280;64924;42.140;24.762;2022-12-24T00:49:04;99549.59;;;5.05;59.29
73870;BME280;64924;42.140;24.762;2022-12-24T00:51:30;99549.59;;;5.05;58.98
73870;BME280;64924;42.140;24.762;2022-12-24T00:53:56;99558.81;;;5.02;59.16
73870;BME280;64924;42.140;24.762;2022-12-24T00:56:22;99549.06;;;5.01;59.20
73870;BME280;64924;42.140;24.762;2022-12-24T00:58:47;99513.16;;;4.85;59.18
73870;BME280;64924;42.140;24.762;2022-12-24T01:01:14;99506.78;;;4.86;59.10
73870;BME280;64924;42.140;24.762;2022-12-24T01:03:39;99541.34;;;5.07;59.29
73870;BME280;64924;42.140;24.762;2022-12-24T01:06:12;99545.03;;;5.06;59.00
73870;BME280;64924;42.140;24.762;2022-12-24T01:08:39;99545.69;;;4.99;59.05
73870;BME280;64924;42.140;24.762;2022-12-24T01:11:06;99539.81;;;5.04;58.96
73870;BME280;64924;42.140;24.762;2022-12-24T01:13:32;99540.81;;;5.03;58.94
73870;BME280;64924;42.140;24.762;2022-12-24T01:16:01;99528.81;;;4.89;59.03
73870;BME280;64924;42.140;24.762;2022-12-24T01:18:27;99523.75;;;4.86;59.35
73870;BME280;64924;42.140;24.762;2022-12-24T01:20:58;99528.53;;;5.00;59.25
73870;BME280;64924;42.140;24.762;2022-12-24T01:23:24;99511.66;;;4.90;59.20
73870;BME280;64924;42.140;24.762;2022-12-24T01:25:50;99474.38;;;4.53;59.07
73870;BME280;64924;42.140;24.762;2022-12-24T01:28:15;99514.34;;;4.82;59.19
73870;BME280;64924;42.140;24.762;2022-12-24T01:30:41;99523.59;;;4.88;59.03
73870;BME280;64924;42.140;24.762;2022-12-24T01:33:07;99504.34;;;4.66;59.32
73870;BME280;64924;42.140;24.762;2022-12-24T01:35:32;99516.16;;;4.74;59.07
73870;BME280;64924;42.140;24.762;2022-12-24T01:37:58;99507.06;;;4.66;59.34
73870;BME280;64924;42.140;24.762;2022-12-24T01:40:25;99516.50;;;4.70;59.49
73870;BME280;64924;42.140;24.762;2022-12-24T01:43:20;99522.25;;;4.84;59.16
73870;BME280;64924;42.140;24.762;2022-12-24T01:45:57;99524.44;;;4.80;59.25
73870;BME280;64924;42.140;24.762;2022-12-24T01:51:18;99526.28;;;4.88;59.14
73870;BME280;64924;42.140;24.762;2022-12-24T01:53:52;99510.97;;;4.80;59.04
73870;BME280;64924;42.140;24.762;2022-12-24T01:56:19;99526.28;;;4.88;58.98
73870;BME280;64924;42.140;24.762;2022-12-24T01:58:47;99517.22;;;4.89;58.96
73870;BME280;64924;42.140;24.762;2022-12-24T02:01:16;99518.22;;;4.80;58.95
73870;BME280;64924;42.140;24.762;2022-12-24T02:03:42;99508.75;;;4.67;59.21
73870;BME280;64924;42.140;24.762;2022-12-24T02:06:08;99504.03;;;4.69;59.01
73870;BME280;64924;42.140;24.762;2022-12-24T02:08:36;99505.38;;;4.65;58.97
73870;BME280;64924;42.140;24.762;2022-12-24T02:11:16;99503.72;;;4.73;58.82
73870;BME280;64924;42.140;24.762;2022-12-24T02:13:45;99514.31;;;4.74;58.95
73870;BME280;64924;42.140;24.762;2022-12-24T02:19:26;99505.09;;;4.77;58.70
73870;BME280;64924;42.140;24.762;2022-12-24T02:27:58;99512.84;;;4.80;58.69
73870;BME280;64924;42.140;24.762;2022-12-24T02:30:42;99507.72;;;4.68;58.96
73870;BME280;64924;42.140;24.762;2022-12-24T02:38:24;99519.38;;;4.77;58.35
73870;BME280;64924;42.140;24.762;2022-12-24T02:41:15;99523.59;;;4.80;58.59
73870;BME280;64924;42.140;24.762;2022-12-24T02:43:44;99472.78;;;4.34;58.89
73870;BME280;64924;42.140;24.762;2022-12-24T02:46:15;99519.47;;;4.59;58.83
73870;BME280;64924;42.140;24.762;2022-12-24T02:48:44;99527.38;;;4.61;58.79
73870;BME280;64924;42.140;24.762;2022-12-24T02:51:12;99486.66;;;4.22;58.77
73870;BME280;64924;42.140;24.762;2022-12-24T02:53:38;99538.06;;;4.45;59.03
73870;BME280;64924;42.140;24.762;2022-12-24T03:07:22;99532.34;;;4.48;59.17
73870;BME280;64924;42.140;24.762;2022-12-24T03:12:49;99531.78;;;4.36;59.28
73870;BME280;64924;42.140;24.762;2022-12-24T03:15:18;99528.56;;;4.32;59.22
73870;BME280;64924;42.140;24.762;2022-12-24T03:17:56;99520.19;;;4.35;59.58
73870;BME280;64924;42.140;24.762;2022-12-24T03:20:32;99515.34;;;4.39;59.25
73870;BME280;64924;42.140;24.762;2022-12-24T03:22:59;99516.28;;;4.30;59.53
73870;BME280;64924;42.140;24.762;2022-12-24T03:25:25;99513.22;;;4.25;59.59
73870;BME280;64924;42.140;24.762;2022-12-24T03:27:51;99503.16;;;4.27;59.69
73870;BME280;64924;42.140;24.762;2022-12-24T03:30:19;99504.78;;;4.20;60.10
73870;BME280;64924;42.140;24.762;2022-12-24T03:32:56;99509.97;;;4.13;60.50
73870;BME280;64924;42.140;24.762;2022-12-24T03:35:25;99502.19;;;4.02;60.83
73870;BME280;64924;42.140;24.762;2022-12-24T03:37:52;99493.38;;;3.92;61.07
73870;BME280;64924;42.140;24.762;2022-12-24T03:40:17;99504.91;;;3.84;61.09
73870;BME280;64924;42.140;24.762;2022-12-24T03:42:44;99511.56;;;3.80;60.82
73870;BME280;64924;42.140;24.762;2022-12-24T03:45:09;99509.88;;;3.97;60.53
73870;BME280;64924;42.140;24.762;2022-12-24T03:47:35;99494.38;;;3.91;60.20
73870;BME280;64924;42.140;24.762;2022-12-24T03:50:03;99516.66;;;4.09;59.80
73870;BME280;64924;42.140;24.762;2022-12-24T03:52:30;99497.59;;;3.94;59.94
73870;BME280;64924;42.140;24.762;2022-12-24T03:54:55;99477.72;;;3.87;60.07
73870;BME280;64924;42.140;24.762;2022-12-24T03:57:21;99474.78;;;3.98;60.05
73870;BME280;64924;42.140;24.762;2022-12-24T03:59:49;99494.34;;;4.17;59.61
73870;BME280;64924;42.140;24.762;2022-12-24T04:02:22;99500.16;;;4.30;59.20
73870;BME280;64924;42.140;24.762;2022-12-24T04:04:48;99500.09;;;4.22;59.35
73870;BME280;64924;42.140;24.762;2022-12-24T04:07:13;99492.28;;;4.11;59.26
73870;BME280;64924;42.140;24.762;2022-12-24T04:09:40;99466.03;;;3.96;59.30
73870;BME280;64924;42.140;24.762;2022-12-24T04:12:07;99501.78;;;4.23;59.27
73870;BME280;64924;42.140;24.762;2022-12-24T04:14:33;99508.16;;;4.22;59.13
73870;BME280;64924;42.140;24.762;2022-12-24T04:17:17;99476.00;;;4.04;59.30
73870;BME280;64924;42.140;24.762;2022-12-24T04:19:50;99491.44;;;4.02;59.90
73870;BME280;64924;42.140;24.762;2022-12-24T04:22:18;99486.47;;;3.89;59.85
73870;BME280;64924;42.140;24.762;2022-12-24T04:24:44;99485.94;;;3.86;60.03
73870;BME280;64924;42.140;24.762;2022-12-24T04:27:09;99506.41;;;4.05;59.79
73870;BME280;64924;42.140;24.762;2022-12-24T04:29:35;99494.59;;;3.97;59.80
73870;BME280;64924;42.140;24.762;2022-12-24T04:32:00;99466.22;;;3.77;59.72
73870;BME280;64924;42.140;24.762;2022-12-24T04:34:26;99502.59;;;3.89;60.11
73870;BME280;64924;42.140;24.762;2022-12-24T04:36:51;99524.91;;;4.08;59.67
73870;BME280;64924;42.140;24.762;2022-12-24T04:39:17;99519.56;;;4.16;59.74
73870;BME280;64924;42.140;24.762;2022-12-24T04:41:42;99512.63;;;4.05;59.86
73870;BME280;64924;42.140;24.762;2022-12-24T04:44:08;99495.97;;;4.01;59.65
73870;BME280;64924;42.140;24.762;2022-12-24T04:46:34;99515.16;;;4.07;59.72
73870;BME280;64924;42.140;24.762;2022-12-24T04:49:00;99507.72;;;4.00;59.80
73870;BME280;64924;42.140;24.762;2022-12-24T04:51:26;99524.94;;;4.16;59.40
73870;BME280;64924;42.140;24.762;2022-12-24T04:53:52;99522.03;;;4.09;59.58
73870;BME280;64924;42.140;24.762;2022-12-24T04:56:20;99510.50;;;4.17;59.72
73870;BME280;64924;42.140;24.762;2022-12-24T04:58:46;99500.34;;;4.11;59.50
73870;BME280;64924;42.140;24.762;2022-12-24T05:01:16;99518.06;;;4.21;59.73
73870;BME280;64924;42.140;24.762;2022-12-24T05:03:42;99533.91;;;4.24;59.51
73870;BME280;64924;42.140;24.762;2022-12-24T05:06:11;99512.44;;;4.32;59.41
73870;BME280;64924;42.140;24.762;2022-12-24T05:08:37;99507.63;;;4.18;59.36
73870;BME280;64924;42.140;24.762;2022-12-24T05:11:03;99510.97;;;4.12;59.51
73870;BME280;64924;42.140;24.762;2022-12-24T05:13:29;99518.69;;;4.07;59.24
73870;BME280;64924;42.140;24.762;2022-12-24T05:15:54;99516.88;;;4.16;59.22
73870;BME280;64924;42.140;24.762;2022-12-24T05:18:20;99517.50;;;4.10;59.34
73870;BME280;64924;42.140;24.762;2022-12-24T05:20:47;99517.50;;;4.10;59.44
73870;BME280;64924;42.140;24.762;2022-12-24T05:23:23;99515.34;;;4.13;59.16
73870;BME280;64924;42.140;24.762;2022-12-24T05:26:26;99528.16;;;4.19;59.47
73870;BME280;64924;42.140;24.762;2022-12-24T05:28:55;99526.38;;;4.02;59.72
73870;BME280;64924;42.140;24.762;2022-12-24T05:31:23;99514.09;;;3.99;59.52
73870;BME280;64924;42.140;24.762;2022-12-24T05:33:49;99528.16;;;3.93;59.57
73870;BME280;64924;42.140;24.762;2022-12-24T05:36:15;99535.84;;;3.88;59.88
73870;BME280;64924;42.140;24.762;2022-12-24T05:38:41;99526.94;;;3.88;59.63
73870;BME280;64924;42.140;24.762;2022-12-24T05:41:07;99525.16;;;3.96;59.79
73870;BME280;64924;42.140;24.762;2022-12-24T05:43:34;99533.06;;;3.98;59.72
73870;BME280;64924;42.140;24.762;2022-12-24T05:46:02;99528.38;;;4.00;59.49
73870;BME280;64924;42.140;24.762;2022-12-24T05:48:27;99527.84;;;3.96;59.75
73870;BME280;64924;42.140;24.762;2022-12-24T05:50:54;99531.06;;;4.00;59.54
73870;BME280;64924;42.140;24.762;2022-12-24T05:53:20;99538.34;;;4.08;59.73
73870;BME280;64924;42.140;24.762;2022-12-24T05:55:46;99534.84;;;4.15;59.36
73870;BME280;64924;42.140;24.762;2022-12-24T05:58:11;99528.00;;;4.21;59.27
73870;BME280;64924;42.140;24.762;2022-12-24T06:00:36;99547.56;;;4.31;59.61
73870;BME280;64924;42.140;24.762;2022-12-24T06:03:02;99532.78;;;4.35;59.00
73870;BME280;64924;42.140;24.762;2022-12-24T06:05:27;99550.84;;;4.51;58.76
73870;BME280;64924;42.140;24.762;2022-12-24T06:07:53;99510.75;;;4.31;58.45
73870;BME280;64924;42.140;24.762;2022-12-24T06:10:18;99546.00;;;4.54;58.35
73870;BME280;64924;42.140;24.762;2022-12-24T06:12:44;99548.22;;;4.59;58.08
73870;BME280;64924;42.140;24.762;2022-12-24T06:15:10;99564.88;;;4.62;58.25
73870;BME280;64924;42.140;24.762;2022-12-24T06:17:35;99560.69;;;4.68;58.06
73870;BME280;64924;42.140;24.762;2022-12-24T06:20:01;99567.13;;;4.75;58.17
73870;BME280;64924;42.140;24.762;2022-12-24T06:22:27;99548.31;;;4.75;58.21
73870;BME280;64924;42.140;24.762;2022-12-24T06:24:52;99555.97;;;5.04;57.64
73870;BME280;64924;42.140;24.762;2022-12-24T06:27:18;99558.91;;;5.19;56.74
73870;BME280;64924;42.140;24.762;2022-12-24T06:29:43;99556.03;;;5.28;56.60
73870;BME280;64924;42.140;24.762;2022-12-24T06:32:09;99562.50;;;5.52;56.70
73870;BME280;64924;42.140;24.762;2022-12-24T06:34:34;99557.31;;;5.99;55.68
73870;BME280;64924;42.140;24.762;2022-12-24T06:37:00;99551.69;;;6.57;54.07
73870;BME280;64924;42.140;24.762;2022-12-24T06:39:26;99561.88;;;7.17;52.47
73870;BME280;64924;42.140;24.762;2022-12-24T06:41:51;99562.03;;;7.78;51.18
73870;BME280;64924;42.140;24.762;2022-12-24T06:44:17;99562.41;;;8.35;50.41
73870;BME280;64924;42.140;24.762;2022-12-24T06:46:42;99560.13;;;8.91;48.95
73870;BME280;64924;42.140;24.762;2022-12-24T06:49:08;99545.00;;;9.32;47.22
73870;BME280;64924;42.140;24.762;2022-12-24T06:51:33;99554.78;;;9.69;46.58
73870;BME280;64924;42.140;24.762;2022-12-24T06:53:59;99548.03;;;10.01;45.38
73870;BME280;64924;42.140;24.762;2022-12-24T06:56:24;99543.88;;;10.27;45.18
73870;BME280;64924;42.140;24.762;2022-12-24T06:58:50;99545.41;;;10.64;44.39
73870;BME280;64924;42.140;24.762;2022-12-24T07:01:17;99544.06;;;10.88;44.14
73870;BME280;64924;42.140;24.762;2022-12-24T07:03:44;99539.81;;;11.13;43.39
73870;BME280;64924;42.140;24.762;2022-12-24T07:06:22;99540.97;;;11.52;42.70
73870;BME280;64924;42.140;24.762;2022-12-24T07:08:48;99536.41;;;11.59;43.06
73870;BME280;64924;42.140;24.762;2022-12-24T07:11:14;99533.09;;;11.70;42.36
73870;BME280;64924;42.140;24.762;2022-12-24T07:13:39;99525.19;;;11.88;41.83
73870;BME280;64924;42.140;24.762;2022-12-24T07:16:05;99526.25;;;12.14;41.41
73870;BME280;64924;42.140;24.762;2022-12-24T07:18:31;99504.25;;;12.22;40.97
73870;BME280;64924;42.140;24.762;2022-12-24T07:20:57;99550.09;;;12.64;40.32
73870;BME280;64924;42.140;24.762;2022-12-24T07:23:23;99528.06;;;12.72;40.08
73870;BME280;64924;42.140;24.762;2022-12-24T07:25:48;99537.63;;;13.01;39.82
73870;BME280;64924;42.140;24.762;2022-12-24T07:28:14;99540.78;;;13.18;39.62
73870;BME280;64924;42.140;24.762;2022-12-24T07:30:39;99535.69;;;13.35;39.21
73870;BME280;64924;42.140;24.762;2022-12-24T07:33:05;99530.38;;;13.40;39.43
73870;BME280;64924;42.140;24.762;2022-12-24T07:35:30;99526.13;;;13.51;38.98
73870;BME280;64924;42.140;24.762;2022-12-24T07:37:56;99531.44;;;13.39;39.20
73870;BME280;64924;42.140;24.762;2022-12-24T07:40:21;99544.38;;;13.57;38.51
73870;BME280;64924;42.140;24.762;2022-12-24T07:42:47;99550.38;;;13.72;38.25
73870;BME280;64924;42.140;24.762;2022-12-24T07:45:12;99533.22;;;13.65;38.51
73870;BME280;64924;42.140;24.762;2022-12-24T07:47:38;99546.69;;;13.91;38.32
73870;BME280;64924;42.140;24.762;2022-12-24T07:50:04;99551.56;;;14.14;38.64
73870;BME280;64924;42.140;24.762;2022-12-24T07:52:30;99552.88;;;14.36;38.13
73870;BME280;64924;42.140;24.762;2022-12-24T07:54:55;99546.22;;;14.51;37.44
73870;BME280;64924;42.140;24.762;2022-12-24T07:57:21;99552.03;;;14.36;38.21
73870;BME280;64924;42.140;24.762;2022-12-24T07:59:46;99555.66;;;14.30;37.93
73870;BME280;64924;42.140;24.762;2022-12-24T08:02:12;99563.38;;;14.08;38.39
73870;BME280;64924;42.140;24.762;2022-12-24T08:04:38;99568.69;;;13.65;38.93
73870;BME280;64924;42.140;24.762;2022-12-24T08:07:04;99574.78;;;13.16;39.74
73870;BME280;64924;42.140;24.762;2022-12-24T08:09:34;99579.41;;;12.95;40.28
73870;BME280;64924;42.140;24.762;2022-12-24T08:12:00;99582.84;;;12.58;41.16
73870;BME280;64924;42.140;24.762;2022-12-24T08:14:29;99584.28;;;12.47;41.94
73870;BME280;64924;42.140;24.762;2022-12-24T08:16:56;99581.56;;;12.34;42.07
73870;BME280;64924;42.140;24.762;2022-12-24T08:19:22;99587.63;;;12.29;42.29
73870;BME280;64924;42.140;24.762;2022-12-24T08:21:47;99589.72;;;12.08;42.41
73870;BME280;64924;42.140;24.762;2022-12-24T08:24:13;99595.53;;;11.91;42.63
73870;BME280;64924;42.140;24.762;2022-12-24T08:26:38;99586.66;;;11.63;43.13
73870;BME280;64924;42.140;24.762;2022-12-24T08:29:04;99602.06;;;11.43;43.84
73870;BME280;64924;42.140;24.762;2022-12-24T08:31:30;99591.47;;;11.13;44.33
73870;BME280;64924;42.140;24.762;2022-12-24T08:34:04;99592.03;;;11.02;45.04
73870;BME280;64924;42.140;24.762;2022-12-24T08:36:29;99591.56;;;10.92;45.15
73870;BME280;64924;42.140;24.762;2022-12-24T08:38:55;99582.44;;;11.06;45.20
73870;BME280;64924;42.140;24.762;2022-12-24T08:41:21;99571.53;;;10.99;45.01
73870;BME280;64924;42.140;24.762;2022-12-24T08:43:46;99586.97;;;11.33;45.00
73870;BME280;64924;42.140;24.762;2022-12-24T08:46:12;99573.44;;;11.47;44.71
73870;BME280;64924;42.140;24.762;2022-12-24T08:48:38;99580.38;;;11.62;44.40
73870;BME280;64924;42.140;24.762;2022-12-24T08:51:08;99583.94;;;11.69;43.68
73870;BME280;64924;42.140;24.762;2022-12-24T08:53:34;99552.50;;;11.47;43.79
73870;BME280;64924;42.140;24.762;2022-12-24T08:56:04;99522.69;;;11.26;43.80
73870;BME280;64924;42.140;24.762;2022-12-24T08:58:31;99561.63;;;11.26;44.20
73870;BME280;64924;42.140;24.762;2022-12-24T09:00:56;99563.13;;;11.35;44.44
73870;BME280;64924;42.140;24.762;2022-12-24T09:03:23;99524.03;;;11.56;43.62
73870;BME280;64924;42.140;24.762;2022-12-24T09:05:49;99565.81;;;11.96;43.15
73870;BME280;64924;42.140;24.762;2022-12-24T09:08:14;99568.13;;;11.99;43.07
73870;BME280;64924;42.140;24.762;2022-12-24T09:10:40;99566.66;;;11.84;42.91
73870;BME280;64924;42.140;24.762;2022-12-24T09:13:05;99561.06;;;11.44;43.68
73870;BME280;64924;42.140;24.762;2022-12-24T09:15:31;99557.88;;;11.34;44.39
73870;BME280;64924;42.140;24.762;2022-12-24T09:17:56;99551.25;;;11.50;44.10
73870;BME280;64924;42.140;24.762;2022-12-24T09:20:22;99551.28;;;11.63;43.67
73870;BME280;64924;42.140;24.762;2022-12-24T09:22:47;99563.66;;;11.72;43.53
73870;BME280;64924;42.140;24.762;2022-12-24T09:25:13;99552.34;;;11.75;43.73
73870;BME280;64924;42.140;24.762;2022-12-24T09:27:38;99549.06;;;11.93;43.53
73870;BME280;64924;42.140;24.762;2022-12-24T09:30:05;99536.13;;;12.21;42.90
73870;BME280;64924;42.140;24.762;2022-12-24T09:32:31;99538.41;;;12.44;42.61
73870;BME280;64924;42.140;24.762;2022-12-24T09:34:57;99548.25;;;12.45;42.69
73870;BME280;64924;42.140;24.762;2022-12-24T09:37:23;99535.47;;;12.32;42.64
73870;BME280;64924;42.140;24.762;2022-12-24T09:39:48;99535.47;;;12.32;42.55
73870;BME280;64924;42.140;24.762;2022-12-24T09:45:05;99525.41;;;12.07;43.55
73870;BME280;64924;42.140;24.762;2022-12-24T09:50:38;99523.72;;;12.05;43.55
73870;BME280;64924;42.140;24.762;2022-12-24T09:53:10;99514.91;;;11.90;43.70
73870;BME280;64924;42.140;24.762;2022-12-24T09:55:47;99516.81;;;11.90;43.94
73870;BME280;64924;42.140;24.762;2022-12-24T09:58:26;99513.66;;;11.93;43.75
73870;BME280;64924;42.140;24.762;2022-12-24T10:00:55;99514.09;;;11.96;43.26
73870;BME280;64924;42.140;24.762;2022-12-24T10:03:20;99497.28;;;11.73;44.14
73870;BME280;64924;42.140;24.762;2022-12-24T10:06:13;99509.06;;;11.80;43.96
73870;BME280;64924;42.140;24.762;2022-12-24T10:10:00;99506.97;;;11.82;44.10
73870;BME280;64924;42.140;24.762;2022-12-24T10:20:14;99497.16;;;11.88;43.59
73870;BME280;64924;42.140;24.762;2022-12-24T10:25:26;99478.28;;;12.19;43.31
73870;BME280;64924;42.140;24.762;2022-12-24T10:27:55;99461.72;;;12.08;43.75
73870;BME280;64924;42.140;24.762;2022-12-24T10:30:22;99473.88;;;12.12;43.98
73870;BME280;64924;42.140;24.762;2022-12-24T10:32:50;99467.38;;;12.13;43.63
73870;BME280;64924;42.140;24.762;2022-12-24T10:35:22;99478.50;;;12.11;43.87
73870;BME280;64924;42.140;24.762;2022-12-24T10:37:51;99481.84;;;11.87;44.17
73870;BME280;64924;42.140;24.762;2022-12-24T10:40:37;99439.50;;;11.58;44.32
73870;BME280;64924;42.140;24.762;2022-12-24T10:43:19;99479.56;;;11.84;44.26
73870;BME280;64924;42.140;24.762;2022-12-24T10:45:48;99465.72;;;11.79;44.36
73870;BME280;64924;42.140;24.762;2022-12-24T10:48:27;99440.13;;;11.73;44.16
73870;BME280;64924;42.140;24.762;2022-12-24T10:51:08;99469.69;;;12.02;44.04
73870;BME280;64924;42.140;24.762;2022-12-24T10:53:46;99469.91;;;12.01;44.06
73870;BME280;64924;42.140;24.762;2022-12-24T10:56:16;99459.00;;;12.08;43.84
73870;BME280;64924;42.140;24.762;2022-12-24T10:58:50;99473.47;;;12.08;44.03
73870;BME280;64924;42.140;24.762;2022-12-24T11:01:16;99473.47;;;12.08;44.19
73870;BME280;64924;42.140;24.762;2022-12-24T11:03:42;99433.69;;;11.81;44.03
73870;BME280;64924;42.140;24.762;2022-12-24T11:06:13;99461.94;;;11.99;44.25
73870;BME280;64924;42.140;24.762;2022-12-24T11:08:42;99468.66;;;12.03;44.25
73870;BME280;64924;42.140;24.762;2022-12-24T11:11:18;99469.28;;;12.19;44.53
73870;BME280;64924;42.140;24.762;2022-12-24T11:13:54;99437.44;;;12.13;44.27
73870;BME280;64924;42.140;24.762;2022-12-24T11:16:28;99480.97;;;12.32;44.34
73870;BME280;64924;42.140;24.762;2022-12-24T11:18:56;99468.44;;;12.18;44.70
73870;BME280;64924;42.140;24.762;2022-12-24T11:21:35;99469.28;;;12.12;44.93
73870;BME280;64924;42.140;24.762;2022-12-24T11:26:45;99434.69;;;11.73;45.45
73870;BME280;64924;42.140;24.762;2022-12-24T11:29:19;99419.88;;;11.82;45.26
73870;BME280;64924;42.140;24.762;2022-12-24T11:31:46;99444.59;;;11.87;45.08
73870;BME280;64924;42.140;24.762;2022-12-24T11:34:23;99423.44;;;11.83;45.20
73870;BME280;64924;42.140;24.762;2022-12-24T11:36:50;99401.00;;;11.74;45.38
73870;BME280;64924;42.140;24.762;2022-12-24T11:39:20;99438.69;;;11.97;45.53
73870;BME280;64924;42.140;24.762;2022-12-24T11:41:47;99356.19;;;11.37;45.80
73870;BME280;64924;42.140;24.762;2022-12-24T11:44:13;99450.63;;;11.89;46.08
73870;BME280;64924;42.140;24.762;2022-12-24T11:46:42;99443.72;;;12.00;45.55
73870;BME280;64924;42.140;24.762;2022-12-24T11:51:37;99432.41;;;12.10;45.77
73870;BME280;64924;42.140;24.762;2022-12-24T11:54:15;99415.03;;;11.91;45.67
73870;BME280;64924;42.140;24.762;2022-12-24T11:56:46;99405.84;;;11.85;45.72
73870;BME280;64924;42.140;24.762;2022-12-24T11:59:18;99444.56;;;12.20;45.52
73870;BME280;64924;42.140;24.762;2022-12-24T12:02:14;99444.31;;;12.28;45.27
73870;BME280;64924;42.140;24.762;2022-12-24T12:04:43;99437.44;;;12.13;45.58
73870;BME280;64924;42.140;24.762;2022-12-24T12:07:24;99440.38;;;12.11;45.99
73870;BME280;64924;42.140;24.762;2022-12-24T12:09:54;99429.69;;;11.96;46.31
73870;BME280;64924;42.140;24.762;2022-12-24T12:12:28;99427.38;;;11.93;46.16
73870;BME280;64924;42.140;24.762;2022-12-24T12:14:59;99435.56;;;12.00;46.04
73870;BME280;64924;42.140;24.762;2022-12-24T12:17:31;99440.56;;;11.96;46.50
73870;BME280;64924;42.140;24.762;2022-12-24T12:20:42;99439.75;;;12.02;46.19
73870;BME280;64924;42.140;24.762;2022-12-24T12:34:30;99428.44;;;12.19;46.56
73870;BME280;64924;42.140;24.762;2022-12-24T12:36:33;99407.69;;;11.91;46.78
73870;BME280;64924;42.140;24.762;2022-12-24T12:39:00;99425.72;;;11.86;47.38
73870;BME280;64924;42.140;24.762;2022-12-24T12:50:10;99435.97;;;11.90;47.31
73870;BME280;64924;42.140;24.762;2022-12-24T12:55:45;99431.56;;;12.02;47.01
73870;BME280;64924;42.140;24.762;2022-12-24T12:58:22;99432.00;;;11.99;47.08
73870;BME280;64924;42.140;24.762;2022-12-24T13:00:52;99429.72;;;11.83;47.17
73870;BME280;64924;42.140;24.762;2022-12-24T13:11:58;99431.78;;;11.94;47.12
73870;BME280;64924;42.140;24.762;2022-12-24T13:20:00;99445.81;;;11.91;47.55
73870;BME280;64924;42.140;24.762;2022-12-24T13:22:33;99442.06;;;11.79;47.43
73870;BME280;64924;42.140;24.762;2022-12-24T13:24:58;99455.47;;;11.87;47.74
73870;BME280;64924;42.140;24.762;2022-12-24T13:27:33;99460.47;;;12.03;47.25
73870;BME280;64924;42.140;24.762;2022-12-24T13:34:56;99473.88;;;11.98;48.13
73870;BME280;64924;42.140;24.762;2022-12-24T13:50:39;99442.06;;;11.79;47.74
73870;BME280;64924;42.140;24.762;2022-12-24T13:55:54;99468.00;;;12.01;47.89
73870;BME280;64924;42.140;24.762;2022-12-24T13:58:20;99468.25;;;11.87;48.17
73870;BME280;64924;42.140;24.762;2022-12-24T14:01:20;99482.88;;;12.05;47.50
73870;BME280;64924;42.140;24.762;2022-12-24T14:03:50;99476.19;;;12.01;47.60
73870;BME280;64924;42.140;24.762;2022-12-24T14:08:47;99454.84;;;11.85;47.80
73870;BME280;64924;42.140;24.762;2022-12-24T14:11:15;99436.59;;;11.72;47.82
73870;BME280;64924;42.140;24.762;2022-12-24T14:18:44;99440.75;;;11.62;48.39
73870;BME280;64924;42.140;24.762;2022-12-24T14:21:20;99476.81;;;11.90;48.01
73870;BME280;64924;42.140;24.762;2022-12-24T14:26:48;99448.72;;;11.70;47.99
73870;BME280;64924;42.140;24.762;2022-12-24T14:31:54;99477.25;;;11.81;48.32
73870;BME280;64924;42.140;24.762;2022-12-24T14:34:21;99470.91;;;11.73;48.81
73870;BME280;64924;42.140;24.762;2022-12-24T14:36:49;99473.44;;;11.75;48.59
73870;BME280;64924;42.140;24.762;2022-12-24T14:39:28;99477.66;;;11.84;48.19
73870;BME280;64924;42.140;24.762;2022-12-24T14:44:55;99482.25;;;11.77;48.74
73870;BME280;64924;42.140;24.762;2022-12-24T14:50:38;99499.81;;;11.75;49.18
73870;BME280;64924;42.140;24.762;2022-12-24T14:55:48;99480.72;;;11.61;49.38
73870;BME280;64924;42.140;24.762;2022-12-24T14:58:31;99488.47;;;11.64;48.99
73870;BME280;64924;42.140;24.762;2022-12-24T15:01:34;99493.31;;;11.69;48.78
73870;BME280;64924;42.140;24.762;2022-12-24T15:06:53;99450.13;;;11.33;50.21
73870;BME280;64924;42.140;24.762;2022-12-24T15:09:26;99456.63;;;11.32;50.25
73870;BME280;64924;42.140;24.762;2022-12-24T15:11:56;99486.34;;;11.40;50.54
73870;BME280;64924;42.140;24.762;2022-12-24T15:14:25;99452.38;;;11.10;50.45
73870;BME280;64924;42.140;24.762;2022-12-24T15:17:11;99495.75;;;11.37;50.05
73870;BME280;64924;42.140;24.762;2022-12-24T15:19:40;99495.31;;;11.27;50.74